Time;durP1;ratioP1;P1;durP2;ratioP2;P2;SDS_P1;SDS_P2;PMS_P1;PMS_P2;Temp;Humidity;BMP_temperature;BMP_pressure;BME280_temperature;BME280_humidity;BME280_pressure;Samples;Min_cycle;Max_cycle;Signal;HPM_P1;HPM_P2
2023/05/03 00:00:09;;;;;;;7.22;2.70;;;9.00;99.90;;;;;;5061587;28;20404;-60
2023/05/03 00:02:38;;;;;;;4.85;2.13;;;8.90;99.90;;;;;;5071074;28;20040;-62
2023/05/03 00:05:11;;;;;;;7.20;1.70;;;8.90;99.90;;;;;;5072515;28;20163;-61
2023/05/03 00:07:40;;;;;;;9.43;2.30;;;8.90;99.90;;;;;;5055113;28;20056;-61
2023/05/03 00:10:09;;;;;;;5.40;1.92;;;8.90;99.90;;;;;;5072527;28;20059;-61
2023/05/03 00:12:39;;;;;;;6.72;2.55;;;8.80;99.90;;;;;;5073002;28;20132;-62
2023/05/03 00:15:06;;;;;;;9.50;2.63;;;8.80;99.90;;;;;;5070518;28;20123;-61
2023/05/03 00:17:33;;;;;;;5.57;1.90;;;8.80;99.90;;;;;;5071137;28;20443;-60
2023/05/03 00:20:00;;;;;;;10.25;2.47;;;8.80;99.90;;;;;;5063564;28;20079;-61
2023/05/03 00:22:27;;;;;;;10.35;2.42;;;8.80;99.90;;;;;;5072659;28;20083;-62
2023/05/03 00:24:55;;;;;;;9.27;3.17;;;8.80;99.90;;;;;;5070618;28;20139;-62
2023/05/03 00:27:23;;;;;;;8.63;2.80;;;8.70;99.90;;;;;;5052184;28;20056;-62
2023/05/03 00:29:51;;;;;;;8.85;2.63;;;8.70;99.90;;;;;;5058451;28;20048;-61
2023/05/03 00:32:19;;;;;;;7.75;2.55;;;8.60;99.90;;;;;;5071159;28;20475;-62
2023/05/03 00:34:46;;;;;;;6.70;2.50;;;8.60;99.90;;;;;;5066625;28;20135;-61
2023/05/03 00:37:12;;;;;;;7.80;3.38;;;8.60;99.90;;;;;;5056376;28;20128;-62
2023/05/03 00:39:39;;;;;;;7.57;2.88;;;8.60;99.90;;;;;;5056550;28;20049;-61
2023/05/03 00:42:06;;;;;;;10.77;3.40;;;8.60;99.90;;;;;;5065839;28;20518;-61
2023/05/03 00:44:33;;;;;;;7.40;3.05;;;8.50;99.90;;;;;;5068246;28;20122;-62
2023/05/03 00:46:59;;;;;;;8.05;3.08;;;8.40;99.90;;;;;;5062911;28;20045;-60
2023/05/03 00:49:26;;;;;;;8.68;3.35;;;8.40;99.90;;;;;;5067596;28;20520;-61
2023/05/03 00:51:53;;;;;;;9.27;3.92;;;8.40;99.90;;;;;;5060164;28;20183;-61
2023/05/03 00:54:21;;;;;;;9.93;3.63;;;8.40;99.90;;;;;;5053763;28;20040;-62
2023/05/03 00:56:48;;;;;;;7.38;3.28;;;8.30;99.90;;;;;;5061726;28;20551;-62
2023/05/03 00:59:18;;;;;;;8.38;3.03;;;8.30;99.90;;;;;;5067491;28;20555;-61
2023/05/03 01:01:52;;;;;;;9.90;2.80;;;8.30;99.90;;;;;;5060785;28;20223;-63
2023/05/03 01:04:20;;;;;;;10.80;3.35;;;8.40;99.90;;;;;;5074582;28;20048;-61
2023/05/03 01:07:18;;;;;;;10.77;3.53;;;8.40;99.90;;;;;;5074953;28;20047;-62
2023/05/03 01:09:59;;;;;;;9.27;4.40;;;8.40;99.90;;;;;;5076157;28;20067;-63
2023/05/03 01:12:51;;;;;;;7.32;2.80;;;8.30;99.90;;;;;;5075970;28;20315;-61
2023/05/03 01:15:52;;;;;;;9.82;3.00;;;8.30;99.90;;;;;;5074455;28;20054;-61
2023/05/03 01:18:22;;;;;;;5.65;2.65;;;8.30;99.90;;;;;;5069414;28;20083;-61
2023/05/03 01:20:49;;;;;;;8.70;3.50;;;8.30;99.90;;;;;;5076736;28;20757;-61
2023/05/03 01:23:47;;;;;;;10.55;3.58;;;8.40;99.90;;;;;;5058520;28;20045;-61
2023/05/03 01:26:22;;;;;;;7.45;2.53;;;8.30;99.90;;;;;;5074638;28;20052;-61
2023/05/03 01:28:49;;;;;;;8.32;3.78;;;8.20;99.90;;;;;;5075298;28;20048;-62
2023/05/03 01:31:29;;;;;;;9.75;3.00;;;8.20;99.90;;;;;;5069142;28;20495;-61
2023/05/03 01:34:24;;;;;;;9.80;3.78;;;8.20;99.90;;;;;;5073118;28;20044;-61
2023/05/03 01:36:52;;;;;;;5.20;2.72;;;8.10;99.90;;;;;;5074486;28;20132;-61
2023/05/03 01:39:21;;;;;;;9.48;3.03;;;8.10;99.90;;;;;;5075531;28;20049;-62
2023/05/03 01:41:51;;;;;;;11.88;3.42;;;8.10;99.90;;;;;;5075006;28;20075;-61
2023/05/03 01:44:18;;;;;;;11.95;2.80;;;8.10;99.90;;;;;;5073863;28;20517;-60
2023/05/03 01:46:45;;;;;;;12.20;3.67;;;8.00;99.90;;;;;;5073237;28;20048;-61
2023/05/03 01:49:12;;;;;;;9.48;3.30;;;8.00;99.90;;;;;;5074283;28;20044;-61
2023/05/03 01:51:39;;;;;;;16.38;3.17;;;8.00;99.90;;;;;;5071733;28;20596;-61
2023/05/03 01:54:06;;;;;;;10.18;3.35;;;8.00;99.90;;;;;;5064985;28;20104;-62
2023/05/03 01:56:34;;;;;;;9.80;3.30;;;8.00;99.90;;;;;;5075422;28;20097;-61
2023/05/03 01:59:02;;;;;;;9.27;3.70;;;8.10;99.90;;;;;;5075105;28;20045;-61
2023/05/03 02:01:28;;;;;;;9.30;3.10;;;8.00;99.90;;;;;;5073755;28;20356;-61
2023/05/03 02:03:55;;;;;;;9.70;3.40;;;8.00;99.90;;;;;;5069034;28;20072;-60
2023/05/03 02:06:26;;;;;;;9.55;2.95;;;7.90;99.90;;;;;;5071924;28;20059;-60
2023/05/03 02:08:53;;;;;;;10.48;3.42;;;7.90;99.90;;;;;;5079597;28;20036;-61
2023/05/03 02:11:20;;;;;;;8.63;3.38;;;7.80;99.90;;;;;;5077015;28;20454;-61
2023/05/03 02:13:48;;;;;;;10.70;3.42;;;7.90;99.90;;;;;;5074450;28;20411;-61
2023/05/03 02:16:18;;;;;;;9.48;2.75;;;7.90;99.90;;;;;;5056978;28;20386;-61
2023/05/03 02:18:45;;;;;;;15.27;3.65;;;7.90;99.90;;;;;;5072109;28;20091;-61
2023/05/03 02:21:12;;;;;;;18.48;4.25;;;7.80;99.90;;;;;;5073711;28;20567;-60
2023/05/03 02:23:39;;;;;;;10.98;3.65;;;7.80;99.90;;;;;;5064006;28;20045;-61
2023/05/03 02:26:06;;;;;;;9.38;3.45;;;7.80;99.90;;;;;;5072066;28;20102;-61
2023/05/03 02:28:34;;;;;;;8.85;3.17;;;7.80;99.90;;;;;;5066266;28;20483;-60
2023/05/03 02:31:00;;;;;;;10.95;3.30;;;7.80;99.90;;;;;;5053685;28;20102;-61
2023/05/03 02:33:27;;;;;;;9.80;4.22;;;7.80;99.90;;;;;;5065397;28;20044;-61
2023/05/03 02:35:54;;;;;;;10.00;4.00;;;7.70;99.90;;;;;;5070195;28;20147;-61
2023/05/03 02:38:21;;;;;;;14.38;4.50;;;7.70;99.90;;;;;;5074578;28;20074;-61
2023/05/03 02:40:48;;;;;;;9.90;3.45;;;7.70;99.90;;;;;;5073471;28;20054;-61
2023/05/03 02:43:15;;;;;;;14.15;3.97;;;7.70;99.90;;;;;;5073737;28;20045;-61
2023/05/03 02:45:44;;;;;;;8.88;3.63;;;7.70;99.90;;;;;;5073205;28;20058;-61
2023/05/03 02:48:11;;;;;;;11.73;3.92;;;7.70;99.90;;;;;;5071707;28;20090;-61
2023/05/03 02:50:38;;;;;;;10.85;4.03;;;7.60;99.90;;;;;;5072803;28;20619;-62
2023/05/03 02:53:05;;;;;;;7.65;4.00;;;7.60;99.90;;;;;;5072957;28;20044;-61
2023/05/03 02:55:32;;;;;;;7.20;3.45;;;7.60;99.90;;;;;;5073120;28;20530;-61
2023/05/03 02:57:59;;;;;;;10.77;3.83;;;7.50;99.90;;;;;;5074465;28;20474;-61
2023/05/03 03:00:26;;;;;;;12.88;4.45;;;7.50;99.90;;;;;;5074406;28;21055;-61
2023/05/03 03:02:53;;;;;;;10.52;3.80;;;7.40;99.90;;;;;;5056507;28;20119;-61
2023/05/03 03:05:20;;;;;;;8.52;3.45;;;7.40;99.90;;;;;;5068482;28;20079;-61
2023/05/03 03:07:47;;;;;;;15.00;4.70;;;7.50;99.90;;;;;;5054597;28;20131;-61
2023/05/03 03:10:14;;;;;;;16.45;4.47;;;7.40;99.90;;;;;;5064258;28;20119;-61
2023/05/03 03:12:40;;;;;;;9.07;3.60;;;7.40;99.90;;;;;;5055986;28;20055;-61
2023/05/03 03:15:08;;;;;;;16.83;5.15;;;7.40;99.90;;;;;;5048523;28;20068;-61
2023/05/03 03:17:38;;;;;;;14.55;4.00;;;7.30;99.90;;;;;;5073279;28;20128;-61
2023/05/03 03:20:11;;;;;;;9.90;3.63;;;7.30;99.90;;;;;;5074282;28;20052;-62
2023/05/03 03:22:38;;;;;;;11.97;4.20;;;7.30;99.90;;;;;;5072939;28;20324;-61
2023/05/03 03:25:06;;;;;;;14.27;4.93;;;7.30;99.90;;;;;;5072727;28;20048;-61
2023/05/03 03:27:33;;;;;;;11.07;3.92;;;7.30;99.90;;;;;;5072756;28;20076;-61
2023/05/03 03:29:59;;;;;;;8.45;4.32;;;7.30;99.90;;;;;;5073552;28;20055;-61
2023/05/03 03:32:27;;;;;;;10.60;4.10;;;7.30;99.90;;;;;;5073597;28;20194;-61
2023/05/03 03:34:54;;;;;;;8.52;3.85;;;7.30;99.90;;;;;;5069855;28;20502;-62
2023/05/03 03:37:22;;;;;;;11.00;3.90;;;7.20;99.90;;;;;;5064907;28;20052;-61
2023/05/03 03:39:48;;;;;;;9.55;3.60;;;7.20;99.90;;;;;;5055942;28;20487;-61
2023/05/03 03:42:15;;;;;;;11.55;4.05;;;7.10;99.90;;;;;;5062191;28;20075;-61
2023/05/03 03:44:45;;;;;;;9.85;3.70;;;7.10;99.90;;;;;;5071490;28;20052;-61
2023/05/03 03:47:12;;;;;;;11.18;4.03;;;7.10;99.90;;;;;;5064792;28;20055;-61
2023/05/03 03:49:39;;;;;;;9.93;4.10;;;7.20;99.90;;;;;;5053380;28;20488;-61
2023/05/03 03:52:06;;;;;;;15.65;3.97;;;7.20;99.90;;;;;;5058820;28;20112;-62
2023/05/03 03:54:36;;;;;;;14.05;6.05;;;7.10;99.90;;;;;;5072983;28;20238;-62
2023/05/03 03:57:03;;;;;;;12.13;3.95;;;7.10;99.90;;;;;;5059669;28;20463;-61
2023/05/03 03:59:30;;;;;;;6.72;3.63;;;6.90;99.90;;;;;;5073980;28;20131;-61
2023/05/03 04:01:56;;;;;;;11.57;5.38;;;6.90;99.90;;;;;;5068010;28;20143;-61
2023/05/03 04:04:23;;;;;;;8.07;4.10;;;6.90;99.90;;;;;;5060244;28;20041;-62
2023/05/03 04:06:50;;;;;;;10.88;3.83;;;6.80;99.90;;;;;;5061693;28;20547;-62
2023/05/03 04:09:17;;;;;;;11.95;4.00;;;6.80;99.90;;;;;;5071819;28;21064;-62
2023/05/03 04:11:44;;;;;;;16.00;4.13;;;6.80;99.90;;;;;;5071573;28;20036;-62
2023/05/03 04:14:11;;;;;;;10.85;4.05;;;6.90;99.90;;;;;;5072761;28;20036;-61
2023/05/03 04:16:38;;;;;;;8.15;3.83;;;6.90;99.90;;;;;;5072408;28;20044;-61
2023/05/03 04:19:05;;;;;;;16.45;5.20;;;6.90;99.90;;;;;;5071467;28;20080;-62
2023/05/03 04:21:31;;;;;;;14.90;4.00;;;6.80;99.90;;;;;;5072149;28;20053;-61
2023/05/03 04:23:59;;;;;;;13.00;4.45;;;6.80;99.90;;;;;;5073101;28;20044;-61
2023/05/03 04:26:26;;;;;;;15.02;3.83;;;6.70;99.90;;;;;;5072706;28;20407;-62
2023/05/03 04:28:58;;;;;;;16.05;4.93;;;6.80;99.90;;;;;;5071881;28;20066;-62
2023/05/03 04:31:25;;;;;;;9.95;4.43;;;6.80;99.90;;;;;;5072569;28;20062;-63
2023/05/03 04:33:52;;;;;;;10.43;4.32;;;6.80;99.90;;;;;;5072585;28;20048;-61
2023/05/03 04:36:24;;;;;;;10.88;4.13;;;6.70;99.90;;;;;;5073142;28;20116;-61
2023/05/03 04:38:51;;;;;;;8.98;4.85;;;6.70;99.90;;;;;;5072853;28;20056;-62
2023/05/03 04:41:18;;;;;;;9.93;4.10;;;6.60;99.90;;;;;;5071887;28;20041;-61
2023/05/03 04:43:45;;;;;;;14.02;5.15;;;6.60;99.90;;;;;;5071824;28;20411;-61
2023/05/03 04:46:12;;;;;;;10.50;5.35;;;6.60;99.90;;;;;;5071616;28;20057;-61
2023/05/03 04:48:39;;;;;;;11.18;4.10;;;6.60;99.90;;;;;;5070826;28;20177;-62
2023/05/03 04:51:06;;;;;;;11.73;4.68;;;6.60;99.90;;;;;;5072186;28;20040;-61
2023/05/03 04:53:33;;;;;;;12.48;4.97;;;6.70;99.90;;;;;;5062932;28;20442;-61
2023/05/03 04:56:00;;;;;;;8.43;5.20;;;6.70;99.90;;;;;;5052443;28;20135;-61
2023/05/03 04:58:26;;;;;;;11.48;5.10;;;6.80;99.90;;;;;;5067468;28;20067;-61
2023/05/03 05:00:53;;;;;;;16.92;6.50;;;6.80;99.90;;;;;;5057484;28;20053;-61
2023/05/03 05:03:20;;;;;;;15.93;5.43;;;6.80;99.90;;;;;;5064589;28;20041;-62
2023/05/03 05:05:47;;;;;;;20.63;5.30;;;6.80;99.90;;;;;;5064749;28;20080;-61
2023/05/03 05:08:14;;;;;;;14.63;5.07;;;6.80;99.90;;;;;;5066529;28;20044;-62
2023/05/03 05:10:41;;;;;;;11.88;5.43;;;6.80;99.90;;;;;;5063009;28;20488;-61
2023/05/03 05:13:08;;;;;;;14.20;5.45;;;6.90;99.90;;;;;;5068307;28;20052;-62
2023/05/03 05:15:35;;;;;;;13.80;5.47;;;6.90;99.90;;;;;;5063271;28;20056;-62
2023/05/03 05:18:02;;;;;;;14.43;4.70;;;7.00;99.90;;;;;;5057774;28;20401;-62
2023/05/03 05:20:28;;;;;;;13.90;4.68;;;7.00;99.90;;;;;;5069431;28;20118;-62
2023/05/03 05:22:55;;;;;;;18.95;4.78;;;7.00;99.90;;;;;;5071986;28;20050;-62
2023/05/03 05:25:22;;;;;;;13.55;4.78;;;7.10;99.90;;;;;;5064533;28;20811;-62
2023/05/03 05:27:48;;;;;;;15.57;5.00;;;7.10;99.90;;;;;;5050870;28;20466;-62
2023/05/03 05:30:15;;;;;;;15.75;5.78;;;7.10;99.90;;;;;;5063614;28;20072;-62
2023/05/03 05:32:42;;;;;;;16.02;6.88;;;7.20;99.90;;;;;;5064818;28;20491;-62
2023/05/03 05:35:09;;;;;;;17.52;4.68;;;7.30;99.90;;;;;;5066447;28;20058;-62
2023/05/03 05:37:36;;;;;;;14.60;4.78;;;7.30;99.90;;;;;;5055248;28;20044;-61
2023/05/03 05:40:03;;;;;;;24.13;5.78;;;7.30;99.90;;;;;;5062557;28;20040;-62
2023/05/03 05:42:30;;;;;;;10.73;4.78;;;7.40;99.90;;;;;;5054697;28;20583;-61
2023/05/03 05:44:57;;;;;;;9.25;4.75;;;7.40;99.90;;;;;;5053997;28;20048;-62
2023/05/03 05:47:24;;;;;;;9.60;4.57;;;7.50;99.90;;;;;;5065581;28;20084;-62
2023/05/03 05:49:51;;;;;;;13.40;4.50;;;7.60;99.90;;;;;;5067472;28;20068;-62
2023/05/03 05:52:18;;;;;;;12.07;4.63;;;7.60;99.90;;;;;;5066643;28;20628;-62
2023/05/03 05:54:45;;;;;;;20.13;5.35;;;7.60;99.90;;;;;;4710695;28;9999824;-62
2023/05/03 05:57:12;;;;;;;18.30;4.65;;;7.70;99.90;;;;;;5073153;28;20127;-62
2023/05/03 05:59:39;;;;;;;20.00;5.53;;;7.80;99.90;;;;;;5073473;28;20557;-62
2023/05/03 06:02:10;;;;;;;18.45;4.95;;;7.90;99.90;;;;;;5073640;28;20051;-62
2023/05/03 06:04:37;;;;;;;14.93;5.03;;;8.00;99.90;;;;;;5072465;28;20045;-62
2023/05/03 06:07:04;;;;;;;12.55;4.75;;;8.00;99.90;;;;;;5071943;28;20071;-62
2023/05/03 06:09:30;;;;;;;15.43;4.68;;;8.10;99.90;;;;;;5072839;28;20055;-61
2023/05/03 06:11:57;;;;;;;18.42;4.70;;;8.20;99.90;;;;;;5075028;28;20051;-62
2023/05/03 06:14:24;;;;;;;12.30;4.85;;;8.20;99.90;;;;;;5079281;28;20593;-62
2023/05/03 06:16:50;;;;;;;22.52;4.53;;;8.30;99.90;;;;;;5076485;28;20135;-61
2023/05/03 06:19:18;;;;;;;20.38;6.53;;;8.40;99.90;;;;;;5072546;28;20594;-62
2023/05/03 06:21:45;;;;;;;14.07;3.97;;;8.40;99.90;;;;;;5070056;28;20055;-62
2023/05/03 06:24:13;;;;;;;12.63;3.58;;;8.40;99.90;;;;;;5071028;28;20384;-63
2023/05/03 06:26:40;;;;;;;14.07;4.45;;;8.50;99.90;;;;;;5077637;28;20112;-62
2023/05/03 06:29:07;;;;;;;8.43;4.55;;;8.50;99.90;;;;;;5077112;28;20079;-61
2023/05/03 06:31:34;;;;;;;31.88;8.43;;;8.50;99.90;;;;;;5075435;28;20487;-62
2023/05/03 06:34:01;;;;;;;14.13;4.13;;;8.60;99.90;;;;;;5077121;28;20411;-62
2023/05/03 06:36:29;;;;;;;12.02;4.80;;;8.70;99.90;;;;;;5076105;28;20376;-63
2023/05/03 06:38:56;;;;;;;14.40;3.78;;;8.70;99.90;;;;;;5077673;28;20059;-62
2023/05/03 06:41:23;;;;;;;12.85;4.88;;;8.80;99.90;;;;;;5073822;28;20406;-63
2023/05/03 06:43:50;;;;;;;20.33;5.68;;;8.90;99.90;;;;;;5068579;28;20515;-63
2023/05/03 06:46:17;;;;;;;14.93;5.88;;;8.90;99.90;;;;;;5056650;28;20451;-61
2023/05/03 06:48:46;;;;;;;13.48;4.68;;;9.00;99.90;;;;;;5075855;28;20075;-61
2023/05/03 06:51:13;;;;;;;12.73;5.18;;;9.10;99.90;;;;;;5077812;28;20048;-63
2023/05/03 06:53:40;;;;;;;15.50;4.55;;;9.10;99.90;;;;;;5077595;28;20058;-61
2023/05/03 06:56:07;;;;;;;18.20;4.82;;;9.10;99.90;;;;;;5078252;28;20055;-63
2023/05/03 06:58:33;;;;;;;11.82;4.88;;;9.20;99.90;;;;;;5076419;28;20044;-62
2023/05/03 07:01:00;;;;;;;16.33;8.23;;;9.30;99.90;;;;;;5077054;28;20052;-62
2023/05/03 07:03:27;;;;;;;11.93;5.32;;;9.30;99.90;;;;;;5076784;28;20121;-63
2023/05/03 07:05:54;;;;;;;19.80;7.22;;;9.40;99.90;;;;;;5077207;28;20048;-62
2023/05/03 07:08:21;;;;;;;16.15;6.53;;;9.50;99.90;;;;;;5076520;28;20147;-62
2023/05/03 07:10:48;;;;;;;14.23;6.70;;;9.60;99.90;;;;;;5077797;28;20155;-62
2023/05/03 07:13:14;;;;;;;18.50;6.40;;;9.60;99.90;;;;;;5076655;28;20041;-61
2023/05/03 07:15:41;;;;;;;11.13;5.97;;;9.60;99.90;;;;;;5076036;28;20044;-61
2023/05/03 07:18:08;;;;;;;17.73;5.45;;;9.70;99.90;;;;;;5056836;28;20048;-62
2023/05/03 07:20:35;;;;;;;14.38;6.35;;;9.80;99.90;;;;;;5064731;28;20084;-62
2023/05/03 07:23:02;;;;;;;12.15;6.78;;;9.90;99.90;;;;;;5069520;28;20539;-62
2023/05/03 07:25:29;;;;;;;13.85;5.85;;;10.00;99.90;;;;;;5068492;28;20131;-62
2023/05/03 07:27:56;;;;;;;16.17;6.65;;;10.10;99.90;;;;;;5070029;28;20065;-62
2023/05/03 07:30:23;;;;;;;19.75;6.03;;;10.20;99.90;;;;;;5063789;28;20076;-63
2023/05/03 07:32:50;;;;;;;19.90;6.53;;;10.20;99.90;;;;;;5054984;28;20045;-61
2023/05/03 07:35:18;;;;;;;17.23;5.82;;;10.30;99.90;;;;;;5065203;28;20041;-62
2023/05/03 07:37:45;;;;;;;12.65;6.07;;;10.30;99.90;;;;;;5055888;28;20044;-61
2023/05/03 07:40:12;;;;;;;14.77;6.43;;;10.40;99.90;;;;;;5065531;28;20120;-62
2023/05/03 07:42:39;;;;;;;15.52;6.30;;;10.40;99.90;;;;;;5055036;28;20056;-62
2023/05/03 07:45:06;;;;;;;21.77;8.57;;;10.50;99.90;;;;;;5062321;28;20100;-62
2023/05/03 07:47:36;;;;;;;19.35;7.35;;;10.50;99.90;;;;;;5072584;28;20052;-62
2023/05/03 07:50:04;;;;;;;12.70;7.03;;;10.50;99.90;;;;;;5070105;28;20041;-62
2023/05/03 07:52:38;;;;;;;21.05;7.57;;;10.60;99.90;;;;;;5073711;28;20083;-62
2023/05/03 07:55:08;;;;;;;20.08;7.18;;;10.60;99.90;;;;;;5067240;28;20419;-62
2023/05/03 07:57:35;;;;;;;17.05;7.85;;;10.70;99.90;;;;;;5058484;28;20052;-62
2023/05/03 08:00:04;;;;;;;21.60;8.50;;;10.70;99.90;;;;;;5057377;28;20053;-61
2023/05/03 08:02:31;;;;;;;26.52;7.90;;;10.80;99.90;;;;;;5053786;28;20088;-62
2023/05/03 08:04:58;;;;;;;12.57;7.60;;;10.80;99.90;;;;;;5067837;28;20044;-62
2023/05/03 08:07:26;;;;;;;17.13;9.10;;;10.90;99.90;;;;;;5072008;28;20053;-61
2023/05/03 08:09:53;;;;;;;20.27;8.93;;;10.90;99.90;;;;;;5056075;28;20128;-61
2023/05/03 08:12:20;;;;;;;23.23;8.52;;;11.10;99.90;;;;;;5073237;28;20048;-61
2023/05/03 08:14:47;;;;;;;22.92;8.90;;;11.10;99.90;;;;;;4718999;28;10000402;-61
2023/05/03 08:17:13;;;;;;;17.85;8.60;;;11.20;99.90;;;;;;5069194;28;20112;-61
2023/05/03 08:19:41;;;;;;;14.00;7.95;;;11.20;99.90;;;;;;5071733;28;20591;-62
2023/05/03 08:22:09;;;;;;;16.95;8.18;;;11.30;99.90;;;;;;5072575;28;20068;-61
2023/05/03 08:24:37;;;;;;;22.58;9.80;;;11.40;99.90;;;;;;5071309;28;20131;-61
2023/05/03 08:27:04;;;;;;;20.50;8.48;;;11.40;99.90;;;;;;5070622;28;20107;-62
2023/05/03 08:29:31;;;;;;;19.50;9.65;;;11.40;99.90;;;;;;5053840;28;20052;-62
2023/05/03 08:31:58;;;;;;;20.92;10.55;;;11.40;99.90;;;;;;5069729;28;20135;-61
2023/05/03 08:34:25;;;;;;;19.20;9.00;;;11.50;99.90;;;;;;5071113;28;20048;-60
2023/05/03 08:36:52;;;;;;;15.98;9.10;;;11.50;99.90;;;;;;5069730;28;20483;-61
2023/05/03 08:39:18;;;;;;;19.58;9.15;;;11.50;99.90;;;;;;5070928;28;20052;-60
2023/05/03 08:41:45;;;;;;;15.27;8.82;;;11.60;99.90;;;;;;5072403;28;20062;-63
2023/05/03 08:44:13;;;;;;;18.80;8.70;;;11.80;99.90;;;;;;5071242;28;20048;-62
2023/05/03 08:46:42;;;;;;;19.95;8.93;;;11.90;99.90;;;;;;5052819;28;20040;-62
2023/05/03 08:49:09;;;;;;;16.63;7.80;;;12.00;99.90;;;;;;5068902;28;20048;-61
2023/05/03 08:51:35;;;;;;;17.92;7.60;;;12.00;99.90;;;;;;5069404;28;20507;-61
2023/05/03 08:54:02;;;;;;;21.75;7.32;;;12.00;99.90;;;;;;5069465;28;20139;-62
2023/05/03 08:56:32;;;;;;;17.58;8.00;;;12.10;99.90;;;;;;5070231;28;20049;-62
2023/05/03 08:59:06;;;;;;;13.77;7.93;;;12.10;99.90;;;;;;5070443;28;20147;-62
2023/05/03 09:01:40;;;;;;;18.40;7.82;;;12.10;99.90;;;;;;5070706;28;20049;-62
2023/05/03 09:04:08;;;;;;;20.30;8.57;;;12.20;99.90;;;;;;5071240;28;20053;-62
2023/05/03 09:06:35;;;;;;;24.20;9.38;;;12.30;99.90;;;;;;5062476;28;20071;-61
2023/05/03 09:09:06;;;;;;;11.98;7.45;;;12.30;99.90;;;;;;5062766;28;20106;-62
2023/05/03 09:11:34;;;;;;;13.10;6.65;;;12.40;99.90;;;;;;5052704;28;20068;-61
2023/05/03 09:14:09;;;;;;;16.98;7.50;;;12.50;99.90;;;;;;5069468;28;20476;-61
2023/05/03 09:16:36;;;;;;;16.83;6.68;;;12.50;99.90;;;;;;5069699;28;20049;-62
2023/05/03 09:19:07;;;;;;;23.90;11.85;;;12.70;99.90;;;;;;5069846;28;20045;-62
2023/05/03 09:21:35;;;;;;;13.32;7.53;;;12.70;99.90;;;;;;5053717;28;20044;-63
2023/05/03 09:24:03;;;;;;;20.75;9.55;;;12.80;99.90;;;;;;5070896;28;20053;-61
2023/05/03 09:26:33;;;;;;;26.45;11.68;;;12.80;99.90;;;;;;5055718;28;20087;-61
2023/05/03 09:29:03;;;;;;;37.70;11.45;;;12.90;99.90;;;;;;5072829;28;20053;-62
2023/05/03 09:31:32;;;;;;;19.00;6.95;;;12.90;99.90;;;;;;5072256;28;20131;-62
2023/05/03 09:33:59;;;;;;;22.55;6.85;;;13.00;99.90;;;;;;5061741;28;20098;-60
2023/05/03 09:36:28;;;;;;;12.45;6.05;;;13.10;99.90;;;;;;5072211;28;20117;-61
2023/05/03 09:38:55;;;;;;;14.02;6.13;;;13.20;99.90;;;;;;5063366;28;20110;-62
2023/05/03 09:41:29;;;;;;;11.98;6.03;;;13.30;99.90;;;;;;5054362;28;20041;-62
2023/05/03 09:44:01;;;;;;;13.52;5.95;;;13.30;99.90;;;;;;5037103;28;20488;-62
2023/05/03 09:46:31;;;;;;;15.13;5.50;;;13.60;99.90;;;;;;5054205;28;20132;-62
2023/05/03 09:48:59;;;;;;;11.45;5.82;;;13.90;99.90;;;;;;5061096;28;20126;-63
2023/05/03 09:51:26;;;;;;;21.45;7.93;;;14.20;99.90;;;;;;5071596;28;20048;-61
2023/05/03 09:53:53;;;;;;;21.20;5.55;;;14.40;99.90;;;;;;5052051;28;20111;-62
2023/05/03 09:56:25;;;;;;;12.50;5.55;;;14.60;99.90;;;;;;5043733;28;20075;-61
2023/05/03 09:58:55;;;;;;;16.95;4.68;;;15.00;99.90;;;;;;5034133;28;20056;-64
2023/05/03 10:01:23;;;;;;;22.58;7.68;;;15.30;99.90;;;;;;5073025;28;20128;-62
2023/05/03 10:03:50;;;;;;;17.42;6.38;;;15.40;99.90;;;;;;5069721;28;20394;-62
2023/05/03 10:06:17;;;;;;;11.85;5.65;;;15.50;99.90;;;;;;5070967;28;20041;-61
2023/05/03 10:09:09;;;;;;;8.85;5.38;;;15.50;99.90;;;;;;5070820;28;20080;-61
2023/05/03 10:11:36;;;;;;;8.35;4.97;;;15.40;99.90;;;;;;5070800;28;20055;-62
2023/05/03 10:14:06;;;;;;;8.88;5.07;;;15.00;99.90;;;;;;5071911;28;20373;-62
2023/05/03 10:16:36;;;;;;;13.63;6.07;;;14.90;99.90;;;;;;5067486;28;20101;-64
2023/05/03 10:19:09;;;;;;;12.02;6.22;;;14.90;99.90;;;;;;5050686;28;20118;-62
2023/05/03 10:22:07;;;;;;;15.25;5.00;;;15.20;99.90;;;;;;5068208;28;20052;-63
2023/05/03 10:24:58;;;;;;;13.20;4.55;;;15.40;99.90;;;;;;5071847;28;20052;-62
2023/05/03 10:27:44;;;;;;;11.82;4.53;;;15.70;99.90;;;;;;5064463;28;20087;-63
2023/05/03 10:30:31;;;;;;;11.65;5.05;;;15.90;99.90;;;;;;5057462;28;20044;-63
2023/05/03 10:33:19;;;;;;;11.07;5.47;;;15.70;99.90;;;;;;5068429;28;20056;-62
2023/05/03 10:35:52;;;;;;;11.93;4.03;;;15.40;99.90;;;;;;5067002;28;20132;-62
2023/05/03 10:38:23;;;;;;;;;;;15.50;99.90;;;;;;5068516;28;20083;-63
2023/05/03 10:40:50;;;;;;;13.35;4.68;;;15.50;99.90;;;;;;5070111;28;19967;-63
2023/05/03 10:43:29;;;;;;;13.48;4.75;;;15.40;99.90;;;;;;5070809;28;20063;-63
2023/05/03 10:46:07;;;;;;;14.63;5.63;;;15.30;99.90;;;;;;5069669;28;20052;-63
2023/05/03 10:48:34;;;;;;;14.77;4.75;;;15.30;99.90;;;;;;5070396;28;20055;-63
2023/05/03 10:51:29;;;;;;;15.05;4.63;;;15.30;99.90;;;;;;5069196;28;20143;-63
2023/05/03 10:53:56;;;;;;;18.55;5.63;;;15.30;99.90;;;;;;5065218;28;20048;-64
2023/05/03 10:56:23;;;;;;;13.65;4.68;;;15.20;99.90;;;;;;5070458;28;20064;-63
2023/05/03 10:58:50;;;;;;;12.50;4.65;;;15.10;99.90;;;;;;5055133;28;20497;-63
2023/05/03 11:01:18;;;;;;;16.08;4.75;;;15.00;99.90;;;;;;5052428;28;20064;-63
2023/05/03 11:03:53;;;;;;;8.27;4.97;;;15.00;99.90;;;;;;5068703;28;20525;-63
2023/05/03 11:06:50;;;;;;;9.57;5.07;;;15.00;99.90;;;;;;5069072;28;20071;-63
2023/05/03 11:09:17;;;;;;;12.43;4.72;;;15.00;99.90;;;;;;5068555;28;20057;-63
2023/05/03 11:11:44;;;;;;;13.85;4.80;;;14.90;99.90;;;;;;5066771;28;20052;-63
2023/05/03 11:14:12;;;;;;;17.92;5.05;;;14.80;99.90;;;;;;5068035;28;20055;-62
2023/05/03 11:16:46;;;;;;;15.32;6.20;;;14.80;99.90;;;;;;5068834;28;20681;-62
2023/05/03 11:19:14;;;;;;;10.68;5.55;;;14.80;99.90;;;;;;5068597;28;20049;-62
2023/05/03 11:21:41;;;;;;;13.07;5.40;;;14.80;99.90;;;;;;5065848;28;20514;-62
2023/05/03 11:24:08;;;;;;;8.77;4.80;;;14.90;99.90;;;;;;5068976;28;20142;-63
2023/05/03 11:26:38;;;;;;;12.95;5.45;;;14.80;99.90;;;;;;5059651;28;20079;-62
2023/05/03 11:29:08;;;;;;;16.17;5.70;;;14.80;99.90;;;;;;5063936;28;20147;-62
2023/05/03 11:31:34;;;;;;;11.18;4.78;;;14.80;99.90;;;;;;5061713;28;20091;-63
2023/05/03 11:34:01;;;;;;;23.10;5.97;;;14.80;99.90;;;;;;5050570;28;20052;-62
2023/05/03 11:36:30;;;;;;;15.70;6.85;;;14.80;99.90;;;;;;5050900;28;20145;-62
2023/05/03 11:38:56;;;;;;;15.77;5.35;;;14.70;99.90;;;;;;5058738;28;20051;-63
2023/05/03 11:41:23;;;;;;;14.60;6.43;;;14.80;99.90;;;;;;5059065;28;20041;-62
2023/05/03 11:43:50;;;;;;;12.88;5.68;;;14.90;99.90;;;;;;5055131;28;20110;-61
2023/05/03 11:46:35;;;;;;;25.58;6.35;;;14.90;99.90;;;;;;5059042;28;20048;-61
2023/05/03 11:49:02;;;;;;;16.02;6.38;;;15.00;99.90;;;;;;5065173;28;20048;-62
2023/05/03 11:51:30;;;;;;;17.55;5.65;;;14.90;99.90;;;;;;5064548;28;20060;-62
2023/05/03 11:53:59;;;;;;;11.25;5.00;;;15.00;99.90;;;;;;5064267;28;20071;-62
2023/05/03 11:56:38;;;;;;;19.60;6.00;;;15.10;99.90;;;;;;5064894;28;20119;-62
2023/05/03 11:59:05;;;;;;;10.68;5.72;;;15.30;99.90;;;;;;5053508;28;20058;-61
2023/05/03 12:01:32;;;;;;;12.77;5.75;;;15.30;99.90;;;;;;5061409;28;20095;-61
2023/05/03 12:04:00;;;;;;;14.50;5.95;;;15.20;99.90;;;;;;5064812;28;20041;-63
2023/05/03 12:06:30;;;;;;;20.67;5.80;;;15.20;99.90;;;;;;5066336;28;20084;-63
2023/05/03 12:09:00;;;;;;;18.02;5.88;;;15.10;99.90;;;;;;5063288;28;20040;-62
2023/05/03 12:11:27;;;;;;;16.35;6.38;;;15.20;99.90;;;;;;5067285;28;20139;-63
2023/05/03 12:13:59;;;;;;;14.57;7.13;;;15.30;99.90;;;;;;5067565;28;20036;-63
2023/05/03 12:16:27;;;;;;;13.85;5.60;;;15.40;99.90;;;;;;5066028;28;20048;-60
2023/05/03 12:19:01;;;;;;;11.60;5.80;;;15.40;99.90;;;;;;5066942;28;20048;-61
2023/05/03 12:21:45;;;;;;;11.07;5.80;;;15.30;99.90;;;;;;5065724;28;20147;-62
2023/05/03 12:24:32;;;;;;;21.38;6.43;;;15.20;99.90;;;;;;5047633;28;20053;-62
2023/05/03 12:27:00;;;;;;;10.93;6.03;;;15.00;99.90;;;;;;5066199;28;20044;-61
2023/05/03 12:29:30;;;;;;;15.13;6.15;;;15.00;99.90;;;;;;5066097;28;20127;-62
2023/05/03 12:32:01;;;;;;;14.90;6.82;;;15.00;99.90;;;;;;5067828;28;20481;-62
2023/05/03 12:34:30;;;;;;;15.93;6.93;;;15.00;99.90;;;;;;5067112;28;20479;-62
2023/05/03 12:37:02;;;;;;;16.40;7.35;;;15.10;99.90;;;;;;5068362;28;20051;-62
2023/05/03 12:39:32;;;;;;;26.08;8.13;;;15.20;99.90;;;;;;5051636;28;20418;-61
2023/05/03 12:42:02;;;;;;;20.20;7.18;;;15.20;99.90;;;;;;5068885;28;20051;-61
2023/05/03 12:44:32;;;;;;;23.17;6.93;;;15.30;99.90;;;;;;5068981;28;20051;-62
2023/05/03 12:47:01;;;;;;;20.05;7.53;;;15.20;99.90;;;;;;5065885;28;20067;-62
2023/05/03 12:49:29;;;;;;;18.52;7.63;;;15.30;99.90;;;;;;5058134;28;20562;-61
2023/05/03 12:51:59;;;;;;;14.48;6.13;;;15.50;99.90;;;;;;5067394;28;20048;-61
2023/05/03 12:54:29;;;;;;;17.00;6.57;;;15.70;99.90;;;;;;5063636;28;20049;-62